Time;durP1;ratioP1;P1;durP2;ratioP2;P2;SDS_P1;SDS_P2;PMS_P1;PMS_P2;Temp;Humidity;BMP_temperature;BMP_pressure;BME280_temperature;BME280_humidity;BME280_pressure;Samples;Min_cycle;Max_cycle;Signal;HPM_P1;HPM_P2
2021/03/15 00:00:10;;;;;;;3.03;1.42;;;9.70;74.70;;;;;;4960530;28;20035;-85
2021/03/15 00:02:37;;;;;;;2.17;1.60;;;9.70;74.70;;;;;;4993670;28;20040;-85
2021/03/15 00:05:05;;;;;;;2.80;1.70;;;9.70;74.70;;;;;;4960181;28;20061;-84
2021/03/15 00:07:30;;;;;;;2.83;1.90;;;9.70;74.70;;;;;;4992576;28;20030;-84
2021/03/15 00:09:56;;;;;;;3.38;1.50;;;9.70;74.70;;;;;;4973314;28;20099;-85
2021/03/15 00:12:22;;;;;;;2.65;1.70;;;9.70;74.70;;;;;;4966431;28;20038;-85
2021/03/15 00:14:48;;;;;;;3.00;1.35;;;9.70;74.70;;;;;;4991721;28;20035;-84
2021/03/15 00:17:13;;;;;;;2.03;1.75;;;9.70;74.70;;;;;;4944032;28;20030;-84
2021/03/15 00:19:39;;;;;;;2.80;1.67;;;9.70;74.70;;;;;;4976554;28;20039;-84
2021/03/15 00:22:05;;;;;;;2.72;1.88;;;9.70;74.70;;;;;;4976391;28;20034;-85
2021/03/15 00:24:30;;;;;;;2.05;1.85;;;9.70;74.70;;;;;;4993215;28;20053;-84
2021/03/15 00:26:56;;;;;;;2.58;1.58;;;9.70;74.70;;;;;;4984117;28;20038;-83
2021/03/15 00:29:22;;;;;;;2.95;1.80;;;9.60;74.70;;;;;;4980118;28;20034;-84
2021/03/15 00:31:49;;;;;;;1.95;1.50;;;9.70;74.80;;;;;;4980217;28;20053;-84
2021/03/15 00:34:15;;;;;;;2.38;1.60;;;9.60;74.70;;;;;;4996297;28;20125;-85
2021/03/15 00:36:42;;;;;;;3.88;1.77;;;9.60;74.70;;;;;;4979967;28;20113;-83
2021/03/15 00:39:08;;;;;;;2.47;1.63;;;9.70;74.80;;;;;;4948103;28;20034;-84
2021/03/15 00:41:33;;;;;;;3.05;1.70;;;9.60;74.70;;;;;;4996143;28;20053;-84
2021/03/15 00:43:59;;;;;;;4.20;1.77;;;9.60;74.80;;;;;;4996244;28;20038;-84
2021/03/15 00:46:25;;;;;;;2.88;1.75;;;9.70;74.80;;;;;;4947935;28;20069;-84
2021/03/15 00:48:51;;;;;;;2.00;1.80;;;9.60;74.80;;;;;;4992051;28;20031;-85
2021/03/15 00:51:17;;;;;;;2.45;1.58;;;9.60;74.80;;;;;;4979173;28;20467;-85
2021/03/15 00:53:42;;;;;;;1.65;1.50;;;9.60;74.80;;;;;;4946419;28;20054;-86
2021/03/15 00:56:08;;;;;;;2.85;1.75;;;9.60;74.80;;;;;;4988164;28;20049;-85
2021/03/15 00:58:34;;;;;;;2.28;1.58;;;9.60;74.80;;;;;;4993776;28;20034;-86
2021/03/15 01:01:00;;;;;;;3.50;1.80;;;9.60;74.80;;;;;;4996010;28;20456;-85
2021/03/15 01:03:46;;;;;;;2.22;1.80;;;9.60;74.80;;;;;;4995232;28;20089;-85
2021/03/15 01:06:13;;;;;;;1.92;1.60;;;9.60;74.80;;;;;;4979747;28;20030;-84
2021/03/15 01:08:49;;;;;;;1.50;1.40;;;9.50;74.80;;;;;;4979593;28;20061;-85
2021/03/15 01:11:25;;;;;;;2.25;1.73;;;9.60;74.80;;;;;;4971008;28;20475;-85
2021/03/15 01:14:05;;;;;;;1.73;1.42;;;9.50;74.80;;;;;;4965984;28;20124;-85
2021/03/15 01:16:44;;;;;;;2.92;1.60;;;9.60;74.90;;;;;;4979402;28;20042;-85
2021/03/15 01:19:10;;;;;;;3.55;1.58;;;9.50;74.80;;;;;;4963010;28;20026;-86
2021/03/15 01:21:36;;;;;;;2.22;1.70;;;9.50;74.90;;;;;;4963132;28;20026;-85
2021/03/15 01:24:02;;;;;;;1.90;1.45;;;9.50;74.90;;;;;;4978846;28;20101;-86
2021/03/15 01:26:28;;;;;;;2.42;1.42;;;9.50;74.90;;;;;;4963064;28;20130;-85
2021/03/15 01:28:54;;;;;;;2.83;1.45;;;9.50;74.90;;;;;;4979627;28;20058;-85
2021/03/15 01:31:20;;;;;;;1.63;1.52;;;9.50;74.90;;;;;;4959831;28;20384;-85
2021/03/15 01:33:45;;;;;;;2.25;1.30;;;9.50;74.90;;;;;;4986581;28;20038;-85
2021/03/15 01:36:11;;;;;;;2.05;1.58;;;9.50;74.90;;;;;;4978793;28;20018;-84
2021/03/15 01:38:37;;;;;;;2.33;1.60;;;9.50;74.90;;;;;;4962994;28;20395;-85
2021/03/15 01:41:03;;;;;;;1.73;1.40;;;9.50;74.90;;;;;;4946987;28;20022;-85
2021/03/15 01:43:29;;;;;;;1.85;1.65;;;9.50;74.90;;;;;;4946686;28;20027;-85
2021/03/15 01:45:54;;;;;;;2.08;1.63;;;9.50;74.90;;;;;;4978957;28;20060;-84
2021/03/15 01:48:20;;;;;;;2.25;1.38;;;9.50;74.90;;;;;;4975914;28;20034;-84
2021/03/15 01:50:49;;;;;;;3.15;1.65;;;9.50;74.90;;;;;;4967083;28;20026;-84
2021/03/15 01:53:17;;;;;;;1.73;1.40;;;9.50;75.00;;;;;;4960698;28;20038;-85
2021/03/15 01:55:45;;;;;;;1.60;1.42;;;9.50;75.00;;;;;;4975579;28;20435;-83
2021/03/15 01:58:12;;;;;;;1.55;1.40;;;9.40;75.00;;;;;;4995066;28;20027;-85
2021/03/15 02:00:38;;;;;;;1.70;1.60;;;9.40;75.00;;;;;;4961103;28;20041;-86
2021/03/15 02:03:06;;;;;;;1.60;1.50;;;9.50;75.00;;;;;;4978693;28;20038;-84
2021/03/15 02:05:34;;;;;;;2.47;1.60;;;9.50;75.00;;;;;;4977806;28;20046;-84
2021/03/15 02:08:00;;;;;;;1.95;1.50;;;9.40;74.90;;;;;;4975191;28;20162;-85
2021/03/15 02:10:26;;;;;;;2.25;1.58;;;9.50;75.00;;;;;;4958954;28;20482;-85
2021/03/15 02:13:16;;;;;;;2.30;1.50;;;9.40;75.00;;;;;;4962064;28;20036;-84
2021/03/15 02:15:57;;;;;;;2.53;1.50;;;9.40;75.10;;;;;;4978150;28;20023;-85
2021/03/15 02:18:52;;;;;;;2.55;1.60;;;9.40;75.00;;;;;;4977867;28;20061;-85
2021/03/15 02:21:45;;;;;;;1.98;1.50;;;9.40;75.10;;;;;;4978478;28;20030;-85
2021/03/15 02:24:15;;;;;;;1.30;1.20;;;9.40;75.00;;;;;;4995564;28;20041;-84
2021/03/15 02:27:17;;;;;;;1.60;1.50;;;9.40;75.00;;;;;;4977569;28;20113;-84
2021/03/15 02:30:25;;;;;;;1.77;1.42;;;9.40;75.20;;;;;;4977802;28;20046;-85
2021/03/15 02:33:17;;;;;;;1.90;1.50;;;9.30;75.10;;;;;;4995008;28;20026;-85
2021/03/15 02:35:45;;;;;;;2.17;1.50;;;9.30;75.00;;;;;;4960615;28;20038;-84
2021/03/15 02:38:12;;;;;;;2.33;1.70;;;9.40;75.10;;;;;;4977334;28;20029;-84
2021/03/15 02:40:47;;;;;;;1.50;1.40;;;9.40;75.20;;;;;;4976909;28;20038;-85
2021/03/15 02:44:08;;;;;;;1.85;1.50;;;9.30;75.20;;;;;;4963780;28;20034;-86
2021/03/15 02:46:35;;;;;;;2.13;1.70;;;9.30;75.30;;;;;;4956216;28;20042;-84
2021/03/15 02:49:05;;;;;;;2.72;1.67;;;9.40;75.10;;;;;;4976657;28;20023;-84
2021/03/15 02:51:35;;;;;;;1.40;1.30;;;9.30;75.10;;;;;;4961206;28;20041;-85
2021/03/15 02:54:03;;;;;;;1.98;1.70;;;9.30;75.20;;;;;;4978102;28;20027;-85
2021/03/15 02:56:32;;;;;;;1.73;1.60;;;9.30;75.20;;;;;;4974430;28;20061;-85
2021/03/15 02:59:03;;;;;;;2.10;1.52;;;9.30;75.20;;;;;;4978589;28;20038;-84
2021/03/15 03:01:32;;;;;;;1.67;1.58;;;9.40;75.30;;;;;;4978633;28;20022;-84
2021/03/15 03:03:59;;;;;;;2.67;1.38;;;9.40;75.20;;;;;;4946887;28;20088;-85
2021/03/15 03:06:29;;;;;;;2.45;1.63;;;9.30;75.20;;;;;;4978841;28;20034;-85
2021/03/15 03:08:59;;;;;;;1.52;1.42;;;9.30;75.20;;;;;;4962318;28;20455;-85
2021/03/15 03:11:27;;;;;;;1.60;1.50;;;9.30;75.20;;;;;;4977669;28;20030;-86
2021/03/15 03:13:54;;;;;;;2.47;1.90;;;9.30;75.20;;;;;;4961937;28;20034;-85
2021/03/15 03:16:21;;;;;;;1.60;1.50;;;9.30;75.20;;;;;;5005939;28;20022;-86
2021/03/15 03:18:53;;;;;;;2.58;1.70;;;9.30;75.20;;;;;;4987321;28;20022;-85
2021/03/15 03:21:22;;;;;;;1.88;1.40;;;9.30;75.30;;;;;;4977084;28;20073;-85
2021/03/15 03:23:51;;;;;;;1.88;1.60;;;9.30;75.20;;;;;;4993063;28;20030;-86
2021/03/15 03:26:20;;;;;;;1.48;1.38;;;9.30;75.20;;;;;;4976849;28;20034;-86
2021/03/15 03:28:48;;;;;;;1.48;1.38;;;9.30;75.30;;;;;;4974241;28;20027;-86
2021/03/15 03:31:14;;;;;;;1.50;1.40;;;9.30;75.30;;;;;;4962798;28;20065;-86
2021/03/15 03:33:42;;;;;;;2.17;1.40;;;9.30;75.30;;;;;;4976306;28;20207;-86
2021/03/15 03:36:08;;;;;;;2.05;1.50;;;9.30;75.30;;;;;;4976850;28;20109;-86
2021/03/15 03:38:34;;;;;;;1.63;1.52;;;9.30;75.30;;;;;;5016329;28;20035;-85
2021/03/15 03:41:01;;;;;;;1.45;1.30;;;9.30;75.30;;;;;;4994086;28;20517;-86
2021/03/15 03:43:26;;;;;;;1.67;1.42;;;9.20;75.20;;;;;;4976451;28;20030;-86
2021/03/15 03:45:52;;;;;;;1.50;1.38;;;9.30;75.30;;;;;;4962703;28;20030;-86
2021/03/15 03:48:18;;;;;;;1.60;1.50;;;9.30;75.30;;;;;;4989807;28;20077;-86
2021/03/15 03:50:44;;;;;;;1.73;1.38;;;9.20;75.90;;;;;;4991329;28;20439;-86
2021/03/15 03:53:15;;;;;;;1.67;1.58;;;9.30;75.30;;;;;;4976595;28;20053;-86
2021/03/15 03:56:04;;;;;;;1.48;1.38;;;9.20;75.30;;;;;;4976491;28;20029;-86
2021/03/15 03:58:31;;;;;;;1.70;1.60;;;9.30;75.30;;;;;;4960038;28;20491;-86
2021/03/15 04:00:58;;;;;;;2.65;1.80;;;9.30;75.30;;;;;;4960154;28;20030;-86
2021/03/15 04:03:28;;;;;;;1.55;1.45;;;9.20;75.30;;;;;;4975865;28;20037;-86
2021/03/15 04:06:08;;;;;;;2.03;1.45;;;9.20;75.30;;;;;;5009957;28;20042;-86
2021/03/15 04:08:56;;;;;;;1.50;1.40;;;9.30;75.40;;;;;;4963159;28;20115;-86
2021/03/15 04:11:25;;;;;;;1.98;1.70;;;9.30;75.40;;;;;;4976606;28;20026;-87
2021/03/15 04:13:54;;;;;;;1.67;1.58;;;9.20;75.30;;;;;;4956828;28;20332;-86
2021/03/15 04:16:43;;;;;;;2.13;1.90;;;9.20;75.30;;;;;;4993069;28;20030;-86
2021/03/15 04:19:10;;;;;;;2.10;1.88;;;9.20;75.40;;;;;;4988118;28;20037;-87
2021/03/15 04:21:38;;;;;;;2.30;2.03;;;9.20;75.30;;;;;;4960219;28;20022;-86
2021/03/15 04:24:06;;;;;;;2.70;1.95;;;9.20;75.40;;;;;;4976091;28;20034;-87
2021/03/15 04:26:32;;;;;;;3.15;1.83;;;9.20;75.40;;;;;;4958379;28;20030;-86
2021/03/15 04:29:00;;;;;;;2.45;1.98;;;9.20;75.40;;;;;;4944042;28;20102;-87
2021/03/15 04:31:27;;;;;;;2.78;2.05;;;9.20;75.50;;;;;;4957114;28;20030;-86
2021/03/15 04:33:55;;;;;;;3.75;2.10;;;9.20;75.50;;;;;;4981197;28;20098;-87
2021/03/15 04:36:21;;;;;;;3.65;2.25;;;9.20;75.50;;;;;;4959166;28;20031;-86
2021/03/15 04:38:48;;;;;;;2.03;1.77;;;9.20;75.50;;;;;;4960230;28;20065;-86
2021/03/15 04:41:16;;;;;;;2.28;1.92;;;9.20;75.50;;;;;;4976500;28;20606;-85
2021/03/15 04:43:45;;;;;;;2.53;1.67;;;9.20;75.50;;;;;;4973276;28;20591;-87
2021/03/15 04:46:11;;;;;;;2.47;1.85;;;9.20;75.50;;;;;;4973886;28;20034;-85
2021/03/15 04:48:39;;;;;;;3.40;2.20;;;9.20;75.50;;;;;;4973677;28;20034;-87
2021/03/15 04:51:06;;;;;;;2.47;1.92;;;9.20;75.50;;;;;;4976412;28;20034;-84
2021/03/15 04:53:36;;;;;;;2.67;2.05;;;9.20;75.50;;;;;;4976201;28;20122;-86
2021/03/15 04:56:09;;;;;;;2.50;1.90;;;9.20;75.50;;;;;;4968085;28;20027;-86
2021/03/15 04:58:39;;;;;;;3.53;2.20;;;9.20;75.50;;;;;;4972338;28;20395;-86
2021/03/15 05:01:06;;;;;;;2.90;2.33;;;9.20;75.50;;;;;;4992340;28;20035;-86
2021/03/15 05:03:35;;;;;;;3.53;2.17;;;9.20;75.50;;;;;;4976300;28;20085;-86
2021/03/15 05:06:02;;;;;;;3.20;2.28;;;9.20;75.50;;;;;;4980668;28;20127;-86
2021/03/15 05:08:33;;;;;;;3.17;2.40;;;9.20;75.50;;;;;;4976261;28;20050;-86
2021/03/15 05:11:01;;;;;;;3.13;1.83;;;9.20;75.50;;;;;;5013762;28;20837;-86
2021/03/15 05:13:29;;;;;;;4.22;2.40;;;9.10;75.50;;;;;;5008368;28;20022;-86
2021/03/15 05:15:57;;;;;;;2.78;2.10;;;9.20;75.50;;;;;;5002179;28;20060;-86
2021/03/15 05:18:26;;;;;;;3.55;2.30;;;9.20;75.50;;;;;;4979366;28;20046;-87
2021/03/15 05:20:52;;;;;;;3.92;2.15;;;9.20;75.60;;;;;;4995585;28;20122;-86
2021/03/15 05:23:19;;;;;;;3.13;2.20;;;9.20;75.50;;;;;;4972531;28;20062;-85
2021/03/15 05:25:49;;;;;;;2.63;1.98;;;9.20;75.50;;;;;;4998574;28;20034;-86
2021/03/15 05:28:17;;;;;;;2.70;2.40;;;9.10;75.50;;;;;;4982949;28;20022;-85
2021/03/15 05:30:45;;;;;;;2.42;1.98;;;9.20;75.50;;;;;;4998554;28;20025;-86
2021/03/15 05:33:13;;;;;;;3.58;2.15;;;9.10;75.50;;;;;;4982611;28;20045;-86
2021/03/15 05:35:44;;;;;;;3.20;2.15;;;9.20;75.50;;;;;;4998658;28;20022;-86
2021/03/15 05:38:10;;;;;;;3.10;1.98;;;9.20;75.60;;;;;;4988475;28;20460;-87
2021/03/15 05:40:42;;;;;;;2.83;2.03;;;9.10;75.50;;;;;;4982405;28;20062;-86
2021/03/15 05:43:24;;;;;;;3.08;2.10;;;9.10;75.50;;;;;;5015320;28;20439;-82
2021/03/15 05:46:41;;;;;;;2.75;2.10;;;9.10;75.60;;;;;;4997086;28;20033;-82
2021/03/15 05:49:16;;;;;;;;;;;9.10;75.60;;;;;;4988293;28;20108;-83
2021/03/15 05:52:18;;;;;;;2.03;1.83;;;9.10;75.40;;;;;;4995848;28;20365;-84
2021/03/15 05:54:47;;;;;;;3.08;2.15;;;9.10;75.50;;;;;;4982462;28;20065;-83
2021/03/15 05:57:31;;;;;;;2.63;2.10;;;9.00;75.40;;;;;;4981577;28;20014;-81
2021/03/15 06:00:22;;;;;;;3.30;2.10;;;9.00;75.50;;;;;;4981324;28;20104;-83
2021/03/15 06:03:06;;;;;;;2.75;2.05;;;9.10;75.60;;;;;;4986423;28;20120;-83
2021/03/15 06:05:35;;;;;;;2.33;2.05;;;9.00;75.50;;;;;;4994743;28;20463;-82
2021/03/15 06:08:06;;;;;;;2.22;1.85;;;9.00;75.60;;;;;;4979337;28;20113;-81
2021/03/15 06:10:35;;;;;;;3.40;2.25;;;9.00;75.60;;;;;;4980239;28;20122;-83
2021/03/15 06:13:13;;;;;;;2.90;2.00;;;9.00;75.60;;;;;;4989194;28;20472;-83
2021/03/15 06:15:41;;;;;;;2.70;2.10;;;9.00;75.70;;;;;;4992880;28;20035;-84
2021/03/15 06:18:09;;;;;;;3.20;2.10;;;9.00;75.60;;;;;;4997266;28;20026;-85
2021/03/15 06:20:37;;;;;;;2.80;1.92;;;9.00;75.60;;;;;;5013414;28;20037;-81
2021/03/15 06:23:05;;;;;;;2.80;2.10;;;9.00;75.60;;;;;;4979751;28;20029;-89
2021/03/15 06:25:33;;;;;;;3.15;2.13;;;9.00;75.60;;;;;;4967347;28;20048;-83
2021/03/15 06:27:58;;;;;;;2.60;1.92;;;9.00;75.60;;;;;;4964644;28;20052;-83
2021/03/15 06:30:26;;;;;;;3.40;2.28;;;9.00;75.60;;;;;;4996791;28;20113;-82
2021/03/15 06:32:57;;;;;;;3.22;2.00;;;9.00;75.60;;;;;;4980586;28;20030;-82
2021/03/15 06:35:26;;;;;;;2.22;1.70;;;9.00;75.60;;;;;;4999451;28;20455;-80
2021/03/15 06:37:52;;;;;;;3.25;2.17;;;9.00;75.60;;;;;;4994645;28;20449;-80
2021/03/15 06:40:19;;;;;;;2.88;2.13;;;9.00;75.60;;;;;;4995432;28;20398;-81
2021/03/15 06:42:45;;;;;;;3.15;1.88;;;9.00;75.60;;;;;;4980144;28;20049;-79
2021/03/15 06:45:21;;;;;;;3.33;2.20;;;9.00;75.60;;;;;;5002609;28;20034;-80
2021/03/15 06:47:48;;;;;;;2.85;2.10;;;9.00;75.70;;;;;;4997123;28;20042;-79
2021/03/15 06:50:15;;;;;;;2.28;1.92;;;9.00;75.60;;;;;;4995833;28;20028;-79
2021/03/15 06:52:56;;;;;;;3.70;2.20;;;9.00;75.70;;;;;;4979982;28;20120;-80
2021/03/15 06:55:29;;;;;;;2.95;1.85;;;9.00;75.70;;;;;;4979777;28;20044;-80
2021/03/15 06:57:55;;;;;;;2.90;2.20;;;8.90;75.60;;;;;;4979831;28;20037;-80
2021/03/15 07:00:24;;;;;;;2.60;1.95;;;9.00;75.60;;;;;;4992275;28;20014;-80
2021/03/15 07:02:58;;;;;;;2.92;2.22;;;8.90;75.60;;;;;;4995345;28;20512;-80
2021/03/15 07:05:24;;;;;;;2.55;1.95;;;8.90;75.70;;;;;;4994386;28;20081;-80
2021/03/15 07:07:52;;;;;;;1.90;1.73;;;8.90;75.60;;;;;;4971442;28;20045;-81
2021/03/15 07:10:25;;;;;;;3.00;2.20;;;8.90;75.60;;;;;;4995991;28;20040;-81
2021/03/15 07:13:07;;;;;;;3.40;2.30;;;8.90;75.60;;;;;;4994187;28;20119;-81
2021/03/15 07:15:34;;;;;;;3.47;2.05;;;9.00;75.80;;;;;;4995554;28;20034;-81
2021/03/15 07:18:18;;;;;;;3.47;2.08;;;9.00;75.70;;;;;;5013078;28;20018;-81
2021/03/15 07:20:53;;;;;;;3.10;2.13;;;9.00;75.80;;;;;;4997068;28;20026;-80
2021/03/15 07:23:38;;;;;;;;;;;9.00;75.80;;;;;;5012839;28;20033;-81
2021/03/15 07:26:24;;;;;;;2.60;2.00;;;9.00;75.70;;;;;;5007072;28;19967;-82
2021/03/15 07:28:50;;;;;;;3.40;1.90;;;8.90;75.60;;;;;;4979528;28;20037;-80
2021/03/15 07:31:19;;;;;;;3.53;2.45;;;9.00;75.70;;;;;;4995147;28;20030;-81
2021/03/15 07:33:54;;;;;;;2.70;1.75;;;9.00;75.80;;;;;;5012762;28;20026;-80
2021/03/15 07:36:25;;;;;;;2.63;1.80;;;9.00;75.80;;;;;;4993059;28;20041;-82
2021/03/15 07:38:52;;;;;;;5.13;2.20;;;9.00;75.90;;;;;;4995371;28;20035;-81
2021/03/15 07:41:20;;;;;;;4.07;2.10;;;9.00;75.90;;;;;;4979014;28;20030;-81
2021/03/15 07:43:46;;;;;;;3.40;2.00;;;9.00;75.90;;;;;;4988905;28;20433;-80
2021/03/15 07:46:24;;;;;;;4.05;1.73;;;9.00;75.90;;;;;;4995193;28;20026;-81
2021/03/15 07:48:50;;;;;;;3.13;1.90;;;9.00;75.90;;;;;;4981761;28;20109;-80
2021/03/15 07:51:36;;;;;;;5.15;2.22;;;9.10;75.90;;;;;;4978960;28;20053;-80
2021/03/15 07:54:04;;;;;;;4.38;2.28;;;9.00;76.00;;;;;;5010262;28;20036;-81
2021/03/15 07:56:30;;;;;;;3.80;2.00;;;9.00;75.80;;;;;;4995210;28;20053;-81
2021/03/15 07:58:56;;;;;;;2.83;1.95;;;9.10;75.90;;;;;;4991918;28;20064;-80
2021/03/15 08:01:24;;;;;;;5.28;2.40;;;9.10;75.90;;;;;;4986182;28;20389;-79
2021/03/15 08:03:51;;;;;;;2.60;1.85;;;9.10;75.90;;;;;;4994736;28;20110;-78
2021/03/15 08:06:17;;;;;;;3.53;1.77;;;9.10;75.90;;;;;;4994597;28;20053;-80
2021/03/15 08:08:43;;;;;;;4.45;2.17;;;9.10;75.90;;;;;;4995003;28;20026;-89
2021/03/15 08:11:17;;;;;;;3.50;2.15;;;9.10;75.90;;;;;;4994065;28;20036;-85
2021/03/15 08:13:46;;;;;;;4.30;1.90;;;9.10;75.90;;;;;;4979709;28;20124;-85
2021/03/15 08:16:13;;;;;;;2.55;1.83;;;9.10;75.90;;;;;;4976041;28;20045;-84
2021/03/15 08:18:44;;;;;;;4.70;2.20;;;9.20;76.50;;;;;;4989815;28;20033;-86
2021/03/15 08:21:12;;;;;;;3.38;2.13;;;9.20;75.90;;;;;;4995651;28;20029;-85
2021/03/15 08:23:45;;;;;;;4.57;2.35;;;9.20;76.20;;;;;;4994482;28;20038;-86
2021/03/15 08:26:15;;;;;;;4.00;1.95;;;9.20;76.00;;;;;;4995394;28;20052;-85
2021/03/15 08:28:43;;;;;;;3.45;1.67;;;9.20;75.90;;;;;;4991347;28;20029;-86
2021/03/15 08:31:22;;;;;;;5.22;2.05;;;9.20;75.90;;;;;;4989439;28;20033;-85
2021/03/15 08:33:49;;;;;;;3.35;1.67;;;9.20;76.00;;;;;;4996177;28;20038;-85
2021/03/15 08:36:15;;;;;;;3.58;1.98;;;9.20;75.80;;;;;;4979340;28;20644;-86
2021/03/15 08:38:43;;;;;;;1.90;1.52;;;9.20;75.80;;;;;;4982456;28;20038;-87
2021/03/15 08:41:28;;;;;;;3.58;1.60;;;9.20;75.90;;;;;;4995537;28;20018;-87
2021/03/15 08:43:54;;;;;;;3.17;1.50;;;9.20;75.80;;;;;;4976547;28;20060;-84
2021/03/15 08:46:23;;;;;;;3.55;1.60;;;9.20;75.80;;;;;;5008245;28;20034;-87
2021/03/15 08:48:57;;;;;;;3.08;1.60;;;9.30;75.90;;;;;;4979889;28;20026;-85
2021/03/15 08:51:32;;;;;;;4.40;1.63;;;9.30;75.90;;;;;;4990653;28;20026;-84
2021/03/15 08:54:04;;;;;;;2.80;1.60;;;9.30;75.90;;;;;;4996135;28;20041;-84
2021/03/15 08:56:30;;;;;;;2.03;1.30;;;9.30;75.80;;;;;;4999383;28;20033;-85
2021/03/15 08:58:57;;;;;;;2.70;1.25;;;9.30;75.80;;;;;;4999156;28;20386;-84
2021/03/15 09:01:28;;;;;;;4.72;1.52;;;9.30;76.50;;;;;;4982577;28;20026;-85
2021/03/15 09:03:58;;;;;;;2.75;1.35;;;9.30;75.80;;;;;;4998601;28;20026;-87
2021/03/15 09:06:36;;;;;;;2.58;1.35;;;9.40;75.80;;;;;;4996595;28;20050;-83
2021/03/15 09:09:05;;;;;;;2.47;1.40;;;9.40;75.80;;;;;;4966149;28;20089;-83
2021/03/15 09:11:37;;;;;;;3.15;1.50;;;9.40;75.80;;;;;;4979489;28;20379;-84
2021/03/15 09:14:26;;;;;;;3.40;1.42;;;9.40;75.70;;;;;;4979156;28;20047;-84
2021/03/15 09:17:15;;;;;;;4.57;1.75;;;9.40;75.80;;;;;;4970870;28;20464;-84
2021/03/15 09:19:47;;;;;;;3.40;1.40;;;9.50;75.80;;;;;;4958349;28;20379;-84
2021/03/15 09:22:16;;;;;;;2.85;1.30;;;9.50;75.60;;;;;;4976980;28;20022;-86
2021/03/15 09:24:44;;;;;;;3.65;1.33;;;9.50;75.60;;;;;;4978113;28;20125;-84
2021/03/15 09:27:32;;;;;;;2.92;1.30;;;9.50;75.60;;;;;;4979532;28;20034;-84
2021/03/15 09:29:59;;;;;;;2.67;1.40;;;9.50;75.50;;;;;;4996416;28;20023;-84
2021/03/15 09:32:36;;;;;;;3.47;1.35;;;9.50;75.50;;;;;;4979074;28;20084;-84
2021/03/15 09:35:15;;;;;;;3.42;1.30;;;9.60;75.50;;;;;;4979197;28;20041;-83
2021/03/15 09:37:47;;;;;;;1.42;1.20;;;9.60;75.60;;;;;;4987301;28;20486;-83
2021/03/15 09:40:15;;;;;;;3.47;1.20;;;9.60;75.60;;;;;;4978429;28;20479;-85
2021/03/15 09:42:43;;;;;;;2.35;1.20;;;9.60;75.40;;;;;;4978728;28;20034;-84
2021/03/15 09:45:13;;;;;;;1.38;1.15;;;9.70;75.50;;;;;;4979074;28;20030;-83
2021/03/15 09:47:39;;;;;;;2.40;1.17;;;9.70;75.50;;;;;;4979023;28;20034;-85
2021/03/15 09:50:34;;;;;;;2.05;1.20;;;9.80;75.50;;;;;;4978409;28;20109;-83
2021/03/15 09:53:15;;;;;;;3.30;1.17;;;9.80;75.60;;;;;;4976393;28;20049;-84
2021/03/15 09:56:06;;;;;;;1.75;1.10;;;9.80;75.40;;;;;;4964041;28;20045;-84
2021/03/15 09:58:38;;;;;;;2.45;1.10;;;9.90;75.60;;;;;;4962006;28;20352;-84
2021/03/15 10:01:10;;;;;;;2.03;1.23;;;9.80;75.30;;;;;;4976970;28;20039;-82
2021/03/15 10:04:05;;;;;;;2.83;1.20;;;9.90;75.40;;;;;;4909781;28;20056;-84
2021/03/15 10:06:49;;;;;;;2.22;1.00;;;9.90;75.30;;;;;;4983378;28;20046;-86
2021/03/15 10:09:40;;;;;;;1.83;1.10;;;9.90;75.30;;;;;;4973768;28;20057;-84
2021/03/15 10:12:25;;;;;;;2.45;1.15;;;10.00;75.30;;;;;;4985079;28;20073;-88
2021/03/15 10:15:24;;;;;;;2.95;1.20;;;10.00;75.30;;;;;;4972414;28;20045;-84
2021/03/15 10:17:58;;;;;;;1.95;1.23;;;10.10;75.30;;;;;;4963391;28;20038;-83
2021/03/15 10:20:38;;;;;;;2.63;1.20;;;10.10;75.30;;;;;;4977949;28;20033;-83
2021/03/15 10:23:21;;;;;;;3.25;1.40;;;10.10;75.30;;;;;;4978496;28;20486;-83
2021/03/15 10:26:05;;;;;;;2.38;1.13;;;10.10;75.40;;;;;;4976677;28;20487;-83
2021/03/15 10:28:55;;;;;;;1.73;1.13;;;10.20;75.50;;;;;;4985010;28;20041;-83
2021/03/15 10:31:25;;;;;;;3.33;1.40;;;10.20;75.30;;;;;;4961957;28;20038;-84
2021/03/15 10:33:52;;;;;;;4.80;1.40;;;10.20;75.40;;;;;;4977708;28;20088;-84
2021/03/15 10:36:23;;;;;;;2.97;1.20;;;10.30;75.40;;;;;;4970542;28;20031;-84
2021/03/15 10:39:08;;;;;;;2.17;1.02;;;10.30;75.40;;;;;;4961380;28;20088;-83
2021/03/15 10:41:38;;;;;;;2.78;1.20;;;10.30;75.30;;;;;;4973578;28;20038;-83
2021/03/15 10:44:05;;;;;;;2.38;1.20;;;10.40;75.30;;;;;;4978079;28;20159;-83
2021/03/15 10:46:53;;;;;;;3.67;1.30;;;10.40;75.30;;;;;;4960765;28;20026;-83
2021/03/15 10:49:26;;;;;;;2.35;1.30;;;10.40;75.40;;;;;;4977669;28;20035;-85
2021/03/15 10:51:56;;;;;;;4.07;1.20;;;10.50;75.30;;;;;;4979741;28;20081;-85
2021/03/15 10:54:36;;;;;;;3.03;1.25;;;10.50;75.20;;;;;;4977162;28;20054;-81
2021/03/15 10:57:18;;;;;;;1.70;1.30;;;10.50;75.30;;;;;;4960977;28;20456;-82
2021/03/15 10:59:49;;;;;;;1.95;0.90;;;10.60;75.30;;;;;;4977181;28;20038;-84
2021/03/15 11:02:27;;;;;;;4.53;1.20;;;10.60;75.20;;;;;;4961931;28;20084;-84
2021/03/15 11:04:59;;;;;;;2.20;1.13;;;10.70;75.30;;;;;;4985221;28;20477;-85
2021/03/15 11:07:37;;;;;;;1.77;1.03;;;10.70;75.20;;;;;;4981432;28;20482;-82
2021/03/15 11:10:16;;;;;;;2.00;1.02;;;10.70;75.20;;;;;;4992552;28;20415;-85
2021/03/15 11:12:48;;;;;;;4.15;1.45;;;10.80;75.20;;;;;;4996089;28;20033;-83
2021/03/15 11:15:20;;;;;;;2.63;1.40;;;10.80;75.10;;;;;;4996490;28;20084;-82
2021/03/15 11:18:11;;;;;;;1.85;1.00;;;10.80;75.20;;;;;;4982835;28;20026;-82
2021/03/15 11:20:47;;;;;;;1.63;1.00;;;10.80;75.20;;;;;;4995229;28;20053;-78
2021/03/15 11:23:38;;;;;;;2.38;1.10;;;10.90;75.10;;;;;;5003499;28;20037;-82
2021/03/15 11:26:16;;;;;;;3.08;1.10;;;11.00;75.10;;;;;;4979627;28;20037;-80
2021/03/15 11:28:52;;;;;;;3.58;1.10;;;11.00;75.00;;;;;;4979627;28;20383;-80
2021/03/15 11:31:29;;;;;;;2.30;1.17;;;11.00;75.00;;;;;;4979790;28;20434;-79
2021/03/15 11:34:00;;;;;;;2.95;1.10;;;11.00;74.90;;;;;;4995260;28;20040;-79
2021/03/15 11:36:35;;;;;;;3.72;1.20;;;11.10;74.90;;;;;;5012687;28;20100;-79
2021/03/15 11:39:07;;;;;;;4.82;1.70;;;11.20;74.90;;;;;;4995182;28;20034;-81
2021/03/15 11:41:46;;;;;;;2.90;1.30;;;11.20;74.90;;;;;;4994711;28;20034;-80
2021/03/15 11:44:14;;;;;;;3.08;1.23;;;11.20;74.80;;;;;;4979184;28;20068;-81
2021/03/15 11:46:40;;;;;;;5.88;2.10;;;11.30;74.90;;;;;;4977462;28;20038;-81
2021/03/15 11:49:08;;;;;;;2.40;1.10;;;11.30;74.80;;;;;;4978101;28;20034;-87
2021/03/15 11:51:54;;;;;;;2.00;1.10;;;11.30;74.80;;;;;;4995673;28;20553;-80
2021/03/15 11:54:38;;;;;;;2.72;1.23;;;11.30;74.70;;;;;;5012068;28;20129;-88
2021/03/15 11:57:05;;;;;;;1.25;1.00;;;11.40;74.70;;;;;;4980428;28;20054;-88
2021/03/15 11:59:32;;;;;;;2.20;1.33;;;11.40;74.70;;;;;;4993380;28;20026;-88
2021/03/15 12:02:07;;;;;;;;;;;11.40;74.70;;;;;;4994088;28;20041;-88
2021/03/15 12:04:33;;;;;;;1.95;1.08;;;11.40;74.60;;;;;;4979524;28;20015;-90
2021/03/15 12:07:03;;;;;;;1.33;1.10;;;11.50;74.70;;;;;;4962118;28;20108;-88
2021/03/15 12:09:36;;;;;;;4.95;1.50;;;11.50;74.60;;;;;;4961863;28;20030;-88
2021/03/15 12:12:03;;;;;;;3.45;1.33;;;11.50;74.60;;;;;;4973774;28;20026;-87
2021/03/15 12:14:38;;;;;;;2.03;1.25;;;11.50;74.70;;;;;;4961787;28;20026;-87
2021/03/15 12:17:06;;;;;;;2.22;1.20;;;11.60;74.70;;;;;;4970966;28;20034;-87
2021/03/15 12:19:34;;;;;;;2.47;1.55;;;11.60;74.70;;;;;;4961233;28;20014;-88
2021/03/15 12:22:05;;;;;;;5.05;1.70;;;11.60;74.70;;;;;;4980774;28;20045;-89
2021/03/15 12:25:04;;;;;;;2.85;1.20;;;11.70;74.70;;;;;;4972118;28;20049;-88
2021/03/15 12:27:38;;;;;;;2.95;1.38;;;11.70;74.70;;;;;;4980688;28;20463;-89
2021/03/15 12:30:05;;;;;;;2.25;1.33;;;11.70;74.70;;;;;;4961348;28;20146;-88
2021/03/15 12:32:31;;;;;;;2.80;1.30;;;11.70;74.80;;;;;;4952805;28;20487;-88
2021/03/15 12:34:57;;;;;;;2.83;1.25;;;11.70;74.70;;;;;;4980015;28;20411;-87
2021/03/15 12:37:23;;;;;;;5.30;1.85;;;11.80;74.80;;;;;;4980503;28;20026;-88
2021/03/15 12:39:52;;;;;;;3.97;1.38;;;11.80;74.70;;;;;;4980777;28;20463;-89
2021/03/15 12:42:21;;;;;;;3.35;1.40;;;11.80;74.70;;;;;;4978551;28;20114;-90
2021/03/15 12:44:52;;;;;;;3.20;1.27;;;11.80;74.70;;;;;;4963084;28;20030;-80
2021/03/15 12:47:20;;;;;;;2.92;1.23;;;11.80;74.70;;;;;;4960177;28;20045;-81
2021/03/15 12:49:49;;;;;;;2.30;1.33;;;11.90;74.70;;;;;;4974195;28;20415;-80
2021/03/15 12:52:17;;;;;;;2.42;1.10;;;11.90;74.70;;;;;;4974695;28;20026;-80
2021/03/15 12:54:52;;;;;;;3.03;1.30;;;11.90;74.60;;;;;;4958761;28;20031;-81
2021/03/15 12:57:17;;;;;;;2.67;1.10;;;11.90;74.60;;;;;;4975323;28;20044;-81
2021/03/15 12:59:55;;;;;;;3.05;1.25;;;11.90;74.60;;;;;;4960037;28;20042;-80
2021/03/15 13:02:24;;;;;;;1.92;1.02;;;11.90;74.50;;;;;;4977233;28;20030;-85
2021/03/15 13:04:50;;;;;;;2.38;1.10;;;11.90;74.60;;;;;;4962823;28;20065;-82
2021/03/15 13:07:16;;;;;;;2.15;1.10;;;12.00;74.60;;;;;;4965124;28;20034;-82
2021/03/15 13:09:48;;;;;;;1.83;0.90;;;12.00;74.60;;;;;;4978464;28;20038;-82
2021/03/15 13:12:21;;;;;;;2.72;1.00;;;12.00;74.60;;;;;;4960784;28;20050;-82
2021/03/15 13:14:57;;;;;;;2.03;1.00;;;12.00;74.60;;;;;;4952269;28;20034;-83
2021/03/15 13:17:36;;;;;;;2.50;1.20;;;12.00;74.60;;;;;;4961658;28;20034;-82
2021/03/15 13:20:09;;;;;;;2.67;1.23;;;12.10;74.60;;;;;;4967669;28;20550;-82